Time;durP1;ratioP1;P1;durP2;ratioP2;P2;SDS_P1;SDS_P2;PMS_P1;PMS_P2;Temp;Humidity;BMP_temperature;BMP_pressure;BME280_temperature;BME280_humidity;BME280_pressure;Samples;Min_cycle;Max_cycle;Signal;HPM_P1;HPM_P2
2022/05/29 00:02:05;;;;;;;10.30;2.30;;;9.20;99.90;;;;;;4992545;28;20163;-78
2022/05/29 00:04:31;;;;;;;9.57;2.30;;;9.20;99.90;;;;;;4993245;28;20192;-78
2022/05/29 00:06:58;;;;;;;6.03;2.20;;;9.20;99.90;;;;;;4994814;28;20250;-78
2022/05/29 00:09:34;;;;;;;8.30;2.17;;;9.20;99.90;;;;;;4994485;28;20177;-78
2022/05/29 00:12:02;;;;;;;7.70;2.20;;;9.20;99.90;;;;;;4991454;28;20227;-77
2022/05/29 00:14:29;;;;;;;7.37;2.40;;;9.10;99.90;;;;;;4994286;28;20229;-78
2022/05/29 00:16:55;;;;;;;8.50;3.00;;;9.20;99.90;;;;;;4994599;28;20170;-79
2022/05/29 00:19:21;;;;;;;7.20;2.33;;;9.20;99.90;;;;;;4994319;28;20210;-78
2022/05/29 00:21:46;;;;;;;9.93;2.40;;;9.20;99.90;;;;;;4992661;28;20172;-78
2022/05/29 00:24:14;;;;;;;8.17;2.30;;;9.20;99.90;;;;;;4993980;28;20562;-78
2022/05/29 00:26:39;;;;;;;14.27;3.17;;;9.20;99.90;;;;;;4994189;28;20167;-79
2022/05/29 00:29:05;;;;;;;12.67;2.60;;;9.20;99.90;;;;;;4994277;28;20173;-78
2022/05/29 00:31:30;;;;;;;11.60;2.90;;;9.30;99.90;;;;;;4993528;28;20200;-78
2022/05/29 00:33:56;;;;;;;15.40;2.87;;;9.30;99.90;;;;;;4992846;28;20203;-78
2022/05/29 00:36:21;;;;;;;14.50;2.70;;;9.30;99.90;;;;;;4990455;28;20175;-78
2022/05/29 00:38:48;;;;;;;7.17;2.63;;;9.40;99.90;;;;;;4994227;28;20203;-78
2022/05/29 00:41:35;;;;;;;9.90;2.50;;;9.40;99.90;;;;;;4993049;28;20185;-78
2022/05/29 00:44:21;;;;;;;7.10;2.50;;;9.40;99.90;;;;;;4993561;28;20282;-78
2022/05/29 00:47:06;;;;;;;8.27;2.57;;;9.40;99.90;;;;;;4992862;28;20176;-78
2022/05/29 00:49:34;;;;;;;8.60;2.43;;;9.30;99.90;;;;;;4992770;28;20231;-77
2022/05/29 00:52:07;;;;;;;9.53;2.13;;;9.40;99.90;;;;;;4993100;28;20171;-78
2022/05/29 00:54:37;;;;;;;10.30;2.43;;;9.40;99.90;;;;;;4993619;28;20671;-78
2022/05/29 00:57:04;;;;;;;8.20;2.50;;;9.30;99.90;;;;;;4993779;28;20171;-78
2022/05/29 00:59:32;;;;;;;9.00;2.70;;;9.40;99.90;;;;;;4993610;28;20650;-78
2022/05/29 01:02:02;;;;;;;15.47;2.70;;;9.40;99.90;;;;;;4989857;28;20830;-79
2022/05/29 01:04:31;;;;;;;11.23;2.53;;;9.40;99.90;;;;;;4993452;28;20237;-78
2022/05/29 01:06:57;;;;;;;15.87;2.70;;;9.30;99.90;;;;;;4992232;28;20182;-78
2022/05/29 01:09:22;;;;;;;10.63;2.50;;;9.40;99.90;;;;;;4993846;28;20167;-77
2022/05/29 01:12:14;;;;;;;9.53;2.50;;;9.50;99.90;;;;;;4989734;28;20187;-78
2022/05/29 01:14:46;;;;;;;9.00;2.50;;;9.40;99.90;;;;;;4993175;28;20231;-78
2022/05/29 01:17:50;;;;;;;7.00;2.43;;;9.50;99.90;;;;;;4993751;28;20172;-78
2022/05/29 01:20:35;;;;;;;12.63;2.83;;;9.40;99.90;;;;;;4991934;28;20410;-78
2022/05/29 01:23:23;;;;;;;7.67;2.53;;;9.50;99.90;;;;;;4991066;28;20245;-78
2022/05/29 01:26:18;;;;;;;15.00;2.97;;;9.50;99.90;;;;;;4993247;28;20171;-78
2022/05/29 01:28:46;;;;;;;6.77;2.37;;;9.40;99.90;;;;;;4993152;28;20175;-79
2022/05/29 01:31:23;;;;;;;8.87;2.60;;;9.30;99.90;;;;;;4992302;28;20174;-79
2022/05/29 01:33:58;;;;;;;6.77;2.50;;;9.20;99.90;;;;;;4993105;28;20558;-79
2022/05/29 01:36:52;;;;;;;12.70;2.50;;;9.10;99.90;;;;;;4990920;28;20171;-79
2022/05/29 01:39:48;;;;;;;4.97;2.43;;;9.00;99.90;;;;;;4992914;28;20230;-78
2022/05/29 01:42:33;;;;;;;9.23;2.53;;;8.80;99.90;;;;;;4990389;28;20199;-78
2022/05/29 01:45:26;;;;;;;6.77;2.60;;;8.80;99.90;;;;;;4991687;28;20193;-79
2022/05/29 01:48:16;;;;;;;7.60;2.60;;;8.80;99.90;;;;;;4992880;28;20202;-78
2022/05/29 01:50:47;;;;;;;12.47;3.57;;;8.70;99.90;;;;;;4992998;28;20579;-79
2022/05/29 01:53:18;;;;;;;11.30;2.60;;;8.70;99.90;;;;;;4990965;28;20198;-79
2022/05/29 01:55:49;;;;;;;9.87;2.47;;;8.60;99.90;;;;;;4992937;28;20213;-79
2022/05/29 01:58:20;;;;;;;10.77;2.30;;;8.60;99.90;;;;;;4991431;28;20270;-79
2022/05/29 02:00:48;;;;;;;11.03;2.50;;;8.50;99.90;;;;;;4991598;28;20253;-79
2022/05/29 02:03:19;;;;;;;9.10;2.30;;;8.50;99.90;;;;;;4990586;28;20685;-78
2022/05/29 02:05:54;;;;;;;12.50;3.50;;;8.40;99.90;;;;;;4992945;28;20163;-77
2022/05/29 02:08:36;;;;;;;11.97;2.67;;;8.30;99.90;;;;;;4992741;28;20209;-77
2022/05/29 02:11:06;;;;;;;12.17;3.27;;;8.30;99.90;;;;;;4989830;28;20175;-78
2022/05/29 02:13:56;;;;;;;8.00;2.93;;;8.50;99.90;;;;;;4991924;28;20201;-78
2022/05/29 02:16:44;;;;;;;6.90;2.80;;;8.50;99.90;;;;;;4991946;28;20182;-78
2022/05/29 02:19:22;;;;;;;8.83;2.67;;;8.40;99.90;;;;;;4992895;28;20558;-77
2022/05/29 02:22:10;;;;;;;15.67;2.93;;;8.30;99.90;;;;;;4993547;28;20329;-78
2022/05/29 02:24:43;;;;;;;10.03;2.67;;;8.20;99.90;;;;;;4996868;28;20327;-76
2022/05/29 02:27:54;;;;;;;10.53;3.00;;;8.20;99.90;;;;;;4995181;28;20272;-79
2022/05/29 02:30:24;;;;;;;12.57;3.03;;;8.30;99.90;;;;;;4936027;29;20219;-78
2022/05/29 02:33:08;;;;;;;11.20;2.73;;;8.30;99.90;;;;;;4919681;29;20255;-79
2022/05/29 02:36:19;;;;;;;9.83;3.10;;;8.30;99.90;;;;;;4970646;28;20678;-78
2022/05/29 02:39:09;;;;;;;7.27;2.77;;;8.30;99.90;;;;;;4996370;28;20260;-79
2022/05/29 02:41:52;;;;;;;12.10;3.17;;;8.20;99.90;;;;;;4995334;28;20274;-78
2022/05/29 02:44:24;;;;;;;7.20;2.80;;;8.20;99.90;;;;;;4994929;28;20260;-77
2022/05/29 02:47:00;;;;;;;8.33;3.00;;;8.10;99.90;;;;;;4996579;28;20174;-79
2022/05/29 02:49:36;;;;;;;6.60;2.80;;;8.00;99.90;;;;;;4994997;28;20180;-79
2022/05/29 02:52:11;;;;;;;12.50;2.80;;;8.00;99.90;;;;;;4995767;28;20295;-79
2022/05/29 02:54:37;;;;;;;13.60;3.27;;;7.90;99.90;;;;;;4994624;28;20280;-79
2022/05/29 02:57:03;;;;;;;12.37;2.83;;;8.00;99.90;;;;;;4996392;28;20207;-78
2022/05/29 02:59:34;;;;;;;9.97;3.27;;;8.00;99.90;;;;;;4994637;28;20206;-79
2022/05/29 03:02:23;;;;;;;16.13;3.33;;;7.90;99.90;;;;;;4993742;28;20170;-78
2022/05/29 03:05:07;;;;;;;11.03;3.30;;;8.10;99.90;;;;;;4994582;28;20194;-79
2022/05/29 03:07:39;;;;;;;9.37;2.97;;;8.10;99.90;;;;;;4994940;28;20628;-79
2022/05/29 03:10:22;;;;;;;8.90;3.47;;;8.10;99.90;;;;;;4994008;28;20170;-78
2022/05/29 03:13:06;;;;;;;13.07;3.57;;;8.10;99.90;;;;;;4996134;28;20163;-77
2022/05/29 03:15:55;;;;;;;9.40;2.80;;;8.10;99.90;;;;;;4996252;28;20262;-78
2022/05/29 03:18:42;;;;;;;10.93;3.67;;;8.10;99.90;;;;;;4996011;28;20229;-78
2022/05/29 03:21:26;;;;;;;9.60;3.63;;;8.10;99.90;;;;;;4994102;28;20185;-78
2022/05/29 03:23:54;;;;;;;13.07;3.93;;;8.10;99.90;;;;;;4996341;28;21270;-78
2022/05/29 03:26:24;;;;;;;7.20;3.33;;;8.10;99.90;;;;;;4994552;28;20186;-78
2022/05/29 03:29:15;;;;;;;9.77;3.50;;;8.10;99.90;;;;;;4996000;28;20195;-79
2022/05/29 03:31:42;;;;;;;14.97;3.70;;;8.20;99.90;;;;;;4994184;28;20182;-79
2022/05/29 03:34:08;;;;;;;11.90;3.77;;;8.20;99.90;;;;;;4992406;28;20263;-78
2022/05/29 03:36:34;;;;;;;8.93;3.27;;;8.30;99.90;;;;;;4995941;28;20185;-79
2022/05/29 03:38:59;;;;;;;9.47;3.60;;;8.20;99.90;;;;;;4996047;28;20601;-79
2022/05/29 03:41:39;;;;;;;14.10;3.10;;;8.20;99.90;;;;;;4995393;28;20650;-79
2022/05/29 03:44:06;;;;;;;10.33;4.17;;;8.30;99.90;;;;;;4995515;28;20194;-78
2022/05/29 03:46:32;;;;;;;14.83;4.30;;;8.30;99.90;;;;;;4996021;28;20170;-79
2022/05/29 03:48:57;;;;;;;11.10;3.80;;;8.30;99.90;;;;;;4995982;28;20178;-79
2022/05/29 03:51:23;;;;;;;10.20;3.83;;;8.30;99.90;;;;;;4994143;28;20182;-79
2022/05/29 03:53:48;;;;;;;14.10;4.00;;;8.30;99.90;;;;;;4995900;28;20621;-78
2022/05/29 03:56:14;;;;;;;9.00;3.57;;;8.40;99.90;;;;;;4995848;28;20254;-79
2022/05/29 03:58:39;;;;;;;9.73;3.40;;;8.40;99.90;;;;;;4995948;28;20175;-79
2022/05/29 04:01:05;;;;;;;11.40;3.50;;;8.30;99.90;;;;;;4991864;28;20262;-79
2022/05/29 04:03:30;;;;;;;12.07;3.90;;;8.40;99.90;;;;;;4994754;28;20186;-78
2022/05/29 04:05:56;;;;;;;14.30;4.10;;;8.40;99.90;;;;;;4994796;28;20655;-78
2022/05/29 04:13:51;;;;;;;7.63;3.50;;;8.50;99.90;;;;;;4994566;28;20225;-78
2022/05/29 04:16:16;;;;;;;19.13;3.87;;;8.60;99.90;;;;;;4994677;28;20174;-79
2022/05/29 04:18:42;;;;;;;10.73;3.80;;;8.40;99.90;;;;;;4994516;28;20229;-78
2022/05/29 04:21:07;;;;;;;13.53;3.50;;;8.50;99.90;;;;;;4992483;28;20176;-77
2022/05/29 04:23:33;;;;;;;13.80;3.97;;;8.50;99.90;;;;;;4994200;28;20626;-77
2022/05/29 04:25:59;;;;;;;6.17;3.50;;;8.60;99.90;;;;;;4994258;28;20701;-77
2022/05/29 04:28:25;;;;;;;13.63;4.10;;;8.60;99.90;;;;;;4994204;28;20255;-79
2022/05/29 04:30:50;;;;;;;15.30;4.23;;;8.60;99.90;;;;;;4994132;28;20169;-76
2022/05/29 04:33:16;;;;;;;9.73;3.83;;;8.60;99.90;;;;;;4993400;28;20690;-78
2022/05/29 04:35:44;;;;;;;7.93;3.90;;;8.70;99.90;;;;;;4991633;28;20214;-79
2022/05/29 04:38:11;;;;;;;9.13;4.13;;;8.70;99.90;;;;;;4994275;28;20225;-78
2022/05/29 04:40:38;;;;;;;11.17;3.80;;;8.80;99.90;;;;;;4994096;28;20233;-79
2022/05/29 04:43:04;;;;;;;10.90;4.00;;;8.80;99.90;;;;;;4993165;28;20210;-79
2022/05/29 04:45:31;;;;;;;12.13;4.00;;;8.90;99.90;;;;;;4992021;28;20662;-78
2022/05/29 04:47:56;;;;;;;14.53;4.53;;;8.80;99.90;;;;;;4992910;28;20187;-76
2022/05/29 04:50:22;;;;;;;6.13;3.60;;;8.90;99.90;;;;;;4993760;28;20176;-79
2022/05/29 04:52:50;;;;;;;8.77;4.20;;;9.10;99.90;;;;;;4993001;28;20535;-77
2022/05/29 04:55:16;;;;;;;13.27;3.60;;;9.20;99.90;;;;;;4994052;28;20170;-78
2022/05/29 04:57:42;;;;;;;14.33;3.83;;;9.20;99.90;;;;;;4993808;28;20206;-78
2022/05/29 05:00:09;;;;;;;13.30;3.20;;;9.30;99.90;;;;;;4991433;28;20817;-76
2022/05/29 05:02:34;;;;;;;8.27;3.20;;;9.30;99.90;;;;;;4991684;28;20171;-78
2022/05/29 05:05:00;;;;;;;9.83;3.70;;;9.40;99.90;;;;;;4992492;28;20678;-78
2022/05/29 05:07:25;;;;;;;11.23;3.30;;;9.40;99.90;;;;;;4993434;28;20172;-77
2022/05/29 05:09:51;;;;;;;9.27;4.10;;;9.40;99.90;;;;;;4993385;28;20179;-78
2022/05/29 05:12:16;;;;;;;8.67;3.37;;;9.40;99.90;;;;;;4990508;28;20184;-78
2022/05/29 05:14:42;;;;;;;11.60;3.53;;;9.40;99.90;;;;;;4993187;28;20214;-78
2022/05/29 05:17:08;;;;;;;11.97;3.70;;;9.60;99.90;;;;;;4993425;28;20361;-78
2022/05/29 05:19:33;;;;;;;9.10;3.53;;;9.70;99.90;;;;;;4992337;28;20227;-79
2022/05/29 05:22:00;;;;;;;8.77;3.37;;;9.80;99.90;;;;;;4993239;28;20172;-76
2022/05/29 05:24:27;;;;;;;9.50;3.30;;;9.80;99.90;;;;;;4993075;28;20192;-77
2022/05/29 05:26:52;;;;;;;11.00;3.73;;;9.80;99.90;;;;;;4993068;28;20170;-78
2022/05/29 05:29:18;;;;;;;12.50;3.60;;;9.80;99.90;;;;;;4993533;28;20611;-79
2022/05/29 05:31:44;;;;;;;11.43;3.17;;;9.80;99.90;;;;;;4993308;28;20167;-78
2022/05/29 05:34:09;;;;;;;8.73;3.80;;;9.80;99.90;;;;;;4991045;28;20677;-78
2022/05/29 05:36:35;;;;;;;10.77;3.40;;;9.80;99.90;;;;;;4992829;28;20582;-77
2022/05/29 05:39:00;;;;;;;11.27;3.20;;;9.90;99.90;;;;;;4992949;28;20683;-78
2022/05/29 05:41:26;;;;;;;12.97;3.53;;;9.90;99.90;;;;;;4991408;28;20187;-79
2022/05/29 05:43:51;;;;;;;7.90;3.50;;;9.90;99.90;;;;;;4993824;28;20189;-78
2022/05/29 05:46:17;;;;;;;11.37;3.60;;;9.90;99.90;;;;;;4992640;28;20211;-79
2022/05/29 05:48:43;;;;;;;8.10;3.20;;;9.90;99.90;;;;;;4993148;28;20202;-78
2022/05/29 05:51:10;;;;;;;18.70;4.07;;;9.90;99.90;;;;;;4992715;28;20203;-78
2022/05/29 05:53:37;;;;;;;14.43;3.53;;;10.00;99.90;;;;;;4992895;28;20257;-78
2022/05/29 05:56:11;;;;;;;11.00;3.43;;;10.10;99.90;;;;;;4992878;28;20640;-78
2022/05/29 05:58:41;;;;;;;11.40;3.50;;;10.20;99.90;;;;;;4992931;28;20579;-78
2022/05/29 06:01:13;;;;;;;10.20;3.43;;;10.10;99.90;;;;;;4988860;28;20181;-78
2022/05/29 06:03:39;;;;;;;8.27;3.50;;;10.20;99.90;;;;;;4991646;28;20226;-78
2022/05/29 06:06:05;;;;;;;15.07;3.50;;;10.30;99.90;;;;;;4992780;28;20206;-80
2022/05/29 06:08:32;;;;;;;7.77;3.33;;;10.10;99.90;;;;;;4993022;28;20179;-78
2022/05/29 06:10:57;;;;;;;9.93;3.57;;;10.30;99.90;;;;;;4990226;28;20266;-79
2022/05/29 06:13:23;;;;;;;7.67;4.00;;;10.40;99.90;;;;;;4991692;28;20281;-79
2022/05/29 06:15:49;;;;;;;10.37;3.50;;;10.40;99.90;;;;;;4993126;28;20185;-78
2022/05/29 06:18:16;;;;;;;11.93;3.40;;;10.40;99.90;;;;;;4991835;28;20172;-78
2022/05/29 06:20:42;;;;;;;12.43;3.60;;;10.40;99.90;;;;;;4991465;28;20586;-78
2022/05/29 06:23:09;;;;;;;9.23;3.40;;;10.40;99.90;;;;;;4991146;28;20197;-78
2022/05/29 06:25:35;;;;;;;9.00;3.30;;;10.40;99.90;;;;;;4993150;28;20171;-78
2022/05/29 06:28:01;;;;;;;11.37;3.93;;;10.50;99.90;;;;;;4993142;28;20648;-78
2022/05/29 06:30:28;;;;;;;8.70;3.20;;;10.40;99.90;;;;;;4992988;28;20217;-79
2022/05/29 06:32:54;;;;;;;9.57;3.83;;;10.60;99.90;;;;;;4992555;28;20723;-78
2022/05/29 06:35:19;;;;;;;14.00;3.53;;;10.70;99.90;;;;;;4991524;28;20174;-79
2022/05/29 06:37:45;;;;;;;10.20;3.20;;;10.80;99.90;;;;;;4992176;28;20187;-79
2022/05/29 06:40:12;;;;;;;8.70;4.03;;;10.80;99.90;;;;;;4992707;28;20674;-79
2022/05/29 06:42:38;;;;;;;12.40;3.43;;;11.00;99.90;;;;;;4992624;28;20277;-79
2022/05/29 06:45:04;;;;;;;7.33;2.83;;;11.10;99.90;;;;;;4992680;28;20562;-79
2022/05/29 06:47:30;;;;;;;13.60;3.60;;;11.00;99.90;;;;;;4992502;28;20173;-77
2022/05/29 06:49:56;;;;;;;13.37;3.20;;;11.00;99.90;;;;;;4992450;28;20188;-79
2022/05/29 06:52:21;;;;;;;9.87;3.13;;;11.00;99.90;;;;;;4992173;28;20189;-79
2022/05/29 06:54:47;;;;;;;11.63;3.90;;;10.80;99.90;;;;;;4992466;28;20338;-79
2022/05/29 06:57:36;;;;;;;7.17;3.00;;;10.80;99.90;;;;;;4992132;28;20179;-80
2022/05/29 07:08:02;;;;;;;8.57;3.50;;;10.70;99.90;;;;;;4992871;28;20180;-78
2022/05/29 07:10:31;;;;;;;10.87;3.27;;;10.60;99.90;;;;;;4994975;28;20179;-79
2022/05/29 07:12:58;;;;;;;5.30;2.77;;;10.70;99.90;;;;;;4995484;28;20212;-78
2022/05/29 07:15:23;;;;;;;7.90;3.00;;;10.70;99.90;;;;;;4996506;28;20178;-78
2022/05/29 07:17:49;;;;;;;9.73;3.27;;;10.90;99.90;;;;;;4996749;28;20176;-79
2022/05/29 07:20:16;;;;;;;11.80;3.03;;;10.90;99.90;;;;;;4996351;28;20201;-80
2022/05/29 07:22:43;;;;;;;9.67;3.40;;;11.00;99.90;;;;;;4995020;28;20166;-78
2022/05/29 07:25:11;;;;;;;10.83;2.80;;;11.20;99.90;;;;;;4996671;28;20245;-80
2022/05/29 07:27:37;;;;;;;13.77;3.43;;;11.30;99.90;;;;;;4996132;28;20181;-77
2022/05/29 07:30:04;;;;;;;7.63;3.27;;;11.50;99.90;;;;;;4996297;28;20658;-79
2022/05/29 07:32:30;;;;;;;12.20;2.73;;;11.60;99.90;;;;;;4995285;28;20182;-79
2022/05/29 07:34:57;;;;;;;10.67;3.10;;;11.70;99.90;;;;;;4994723;28;20194;-80
2022/05/29 07:37:22;;;;;;;8.50;3.10;;;11.80;99.90;;;;;;4996360;28;20171;-79
2022/05/29 07:39:51;;;;;;;6.77;2.70;;;11.90;99.90;;;;;;4994424;28;20205;-80
2022/05/29 07:45:03;;;;;;;9.37;2.90;;;11.90;99.90;;;;;;4995990;28;20233;-79
2022/05/29 07:47:36;;;;;;;11.00;2.70;;;11.70;99.90;;;;;;4996445;28;20568;-79
2022/05/29 07:50:02;;;;;;;7.03;2.60;;;11.60;99.90;;;;;;4995506;28;20171;-80
2022/05/29 07:52:28;;;;;;;14.40;3.23;;;11.60;99.90;;;;;;4994991;28;20183;-79
2022/05/29 07:54:54;;;;;;;12.53;3.43;;;11.80;99.90;;;;;;5005099;23;20528;-83
2022/05/29 07:57:20;;;;;;;17.03;3.20;;;12.00;99.90;;;;;;5014218;28;20659;-81
2022/05/29 07:59:45;;;;;;;8.90;2.70;;;12.50;99.90;;;;;;5013982;28;20234;-82
2022/05/29 08:02:11;;;;;;;8.10;2.67;;;12.60;99.90;;;;;;5015237;28;20198;-83
2022/05/29 08:04:39;;;;;;;13.60;2.83;;;12.50;99.90;;;;;;5015892;28;20250;-81
2022/05/29 08:07:05;;;;;;;9.03;2.67;;;12.30;99.90;;;;;;5014710;28;20171;-83
2022/05/29 08:09:30;;;;;;;12.37;3.00;;;12.10;99.90;;;;;;5015367;28;20230;-82
2022/05/29 08:11:56;;;;;;;12.13;3.20;;;12.10;99.90;;;;;;5015128;28;20602;-81
2022/05/29 08:14:22;;;;;;;8.30;3.00;;;12.00;99.90;;;;;;5016403;28;20179;-81
2022/05/29 08:16:48;;;;;;;14.80;2.80;;;12.20;99.90;;;;;;5015141;28;20538;-81
2022/05/29 08:19:14;;;;;;;7.67;2.40;;;12.60;99.90;;;;;;5015891;28;20338;-80
2022/05/29 08:21:41;;;;;;;9.73;2.70;;;12.80;99.90;;;;;;5015844;28;20696;-84
2022/05/29 08:32:20;;;;;;;10.90;2.30;;;13.60;99.90;;;;;;5017309;28;20203;-82
2022/05/29 08:34:45;;;;;;;4.97;1.70;;;13.40;99.90;;;;;;5016091;28;20642;-83
2022/05/29 08:37:12;;;;;;;6.70;2.07;;;13.40;99.90;;;;;;5015710;28;20177;-82
2022/05/29 08:39:38;;;;;;;11.00;2.23;;;13.40;99.90;;;;;;5014396;28;20413;-82
2022/05/29 08:42:04;;;;;;;5.50;1.97;;;12.90;99.90;;;;;;5014718;28;20193;-82
2022/05/29 08:44:46;;;;;;;9.33;2.00;;;12.70;99.90;;;;;;5016705;28;20166;-83
2022/05/29 08:47:13;;;;;;;6.87;2.17;;;12.40;99.90;;;;;;5014726;28;20169;-82
2022/05/29 08:49:43;;;;;;;7.93;2.03;;;12.40;99.90;;;;;;5014584;28;20181;-83
2022/05/29 08:52:13;;;;;;;6.67;1.97;;;13.10;99.90;;;;;;5014359;28;20472;-83
2022/05/29 08:54:50;;;;;;;10.87;2.00;;;13.50;99.90;;;;;;5014746;28;20177;-82
2022/05/29 08:57:22;;;;;;;6.67;1.80;;;13.70;99.90;;;;;;5014421;28;20185;-83
2022/05/29 08:59:58;;;;;;;8.60;2.03;;;13.90;99.90;;;;;;5015104;28;20468;-83
2022/05/29 09:02:30;;;;;;;4.97;1.70;;;14.70;99.90;;;;;;5014166;28;20670;-82
2022/05/29 09:05:27;;;;;;;2.70;1.43;;;15.70;99.90;;;;;;5014279;28;20276;-82
2022/05/29 09:07:58;;;;;;;3.17;1.60;;;15.70;99.90;;;;;;5014977;28;20262;-82
2022/05/29 09:10:38;;;;;;;5.47;1.60;;;15.10;99.90;;;;;;5014395;28;20194;-83
2022/05/29 09:13:13;;;;;;;3.97;1.47;;;14.50;99.90;;;;;;5014749;28;20181;-83
2022/05/29 09:15:47;;;;;;;6.93;1.70;;;14.40;99.90;;;;;;5014975;28;20193;-81
2022/05/29 09:18:32;;;;;;;7.93;1.93;;;14.50;99.90;;;;;;5015273;28;20182;-82
2022/05/29 09:21:32;;;;;;;10.20;1.80;;;14.50;99.90;;;;;;5014561;28;20721;-82
2022/05/29 09:24:09;;;;;;;4.37;1.53;;;14.50;99.90;;;;;;5012461;28;20225;-83
2022/05/29 09:26:39;;;;;;;5.40;1.60;;;14.40;99.90;;;;;;5015089;28;20182;-83
2022/05/29 09:29:06;;;;;;;5.97;1.70;;;14.30;99.90;;;;;;5016109;28;20178;-82
2022/05/29 09:31:33;;;;;;;8.43;1.60;;;14.00;99.90;;;;;;5014442;28;20206;-83
2022/05/29 09:33:59;;;;;;;7.70;1.80;;;14.00;99.90;;;;;;5015289;28;20182;-82
2022/05/29 09:36:44;;;;;;;12.03;1.80;;;14.10;99.90;;;;;;5014587;28;20605;-81
2022/05/29 09:39:24;;;;;;;5.37;1.90;;;14.20;99.90;;;;;;5015303;28;20523;-86
2022/05/29 09:42:24;;;;;;;6.23;2.00;;;13.90;99.90;;;;;;5015414;28;20197;-81
2022/05/29 09:45:05;;;;;;;10.47;1.80;;;13.40;99.90;;;;;;5016612;28;20181;-82
2022/05/29 09:50:17;;;;;;;6.57;1.97;;;12.80;99.90;;;;;;5016362;28;20664;-82
2022/05/29 09:52:44;;;;;;;10.93;2.20;;;12.50;99.90;;;;;;5015011;28;20173;-83
2022/05/29 09:55:22;;;;;;;11.87;2.10;;;12.50;99.90;;;;;;5014913;28;20254;-83
2022/05/29 09:57:56;;;;;;;10.17;3.00;;;12.60;99.90;;;;;;5014439;28;20228;-83
2022/05/29 10:00:35;;;;;;;8.03;2.47;;;12.60;99.90;;;;;;5014908;28;20302;-84
2022/05/29 10:03:04;;;;;;;7.77;2.20;;;12.80;99.90;;;;;;5014317;28;20173;-83
2022/05/29 10:05:33;;;;;;;6.73;2.33;;;13.00;99.90;;;;;;5014536;28;20172;-83
2022/05/29 10:08:16;;;;;;;8.17;2.23;;;13.30;99.90;;;;;;5014532;28;20168;-81
2022/05/29 10:10:41;;;;;;;8.70;2.20;;;13.50;99.90;;;;;;5013349;28;20226;-81
2022/05/29 10:13:07;;;;;;;6.50;2.17;;;13.70;99.90;;;;;;5013956;28;20178;-83
2022/05/29 10:15:36;;;;;;;5.57;1.87;;;13.70;99.90;;;;;;5015800;28;20269;-82
2022/05/29 10:18:11;;;;;;;10.60;1.93;;;13.70;99.90;;;;;;5015084;28;20181;-82
2022/05/29 10:20:43;;;;;;;12.23;2.23;;;13.70;99.90;;;;;;5015511;28;20240;-82
2022/05/29 10:23:11;;;;;;;9.83;2.00;;;13.60;99.90;;;;;;5015255;28;20178;-83
2022/05/29 10:25:42;;;;;;;6.10;1.33;;;13.70;99.90;;;;;;5015145;28;20183;-80
2022/05/29 10:28:15;;;;;;;7.17;1.40;;;14.00;99.90;;;;;;5014835;28;20166;-80
2022/05/29 10:30:48;;;;;;;10.27;1.87;;;14.10;99.90;;;;;;5013848;28;20193;-79
2022/05/29 10:33:20;;;;;;;8.03;1.93;;;13.90;99.90;;;;;;5014364;28;20173;-81
2022/05/29 10:35:47;;;;;;;7.40;1.60;;;14.40;99.90;;;;;;5014594;28;20179;-82
2022/05/29 10:38:19;;;;;;;5.80;1.80;;;14.70;99.90;;;;;;5014599;28;20180;-80
2022/05/29 10:40:47;;;;;;;4.70;1.37;;;14.80;99.90;;;;;;5013951;28;20205;-83
2022/05/29 10:43:31;;;;;;;5.57;1.17;;;14.70;99.90;;;;;;5013328;28;20639;-83
2022/05/29 10:46:04;;;;;;;4.87;1.23;;;14.40;99.90;;;;;;5018530;28;20176;-81
2022/05/29 10:49:01;;;;;;;6.40;1.67;;;14.90;99.90;;;;;;5018600;28;20542;-80
2022/05/29 10:51:50;;;;;;;6.77;1.53;;;14.90;99.90;;;;;;5017943;28;20190;-81
2022/05/29 10:54:34;;;;;;;9.17;1.70;;;14.90;99.90;;;;;;5018609;28;20179;-81
2022/05/29 10:57:28;;;;;;;7.00;1.47;;;15.20;99.90;;;;;;5017937;28;20190;-83
2022/05/29 11:00:12;;;;;;;5.43;1.50;;;15.00;99.90;;;;;;5017025;28;20208;-82
2022/05/29 11:03:18;;;;;;;4.93;1.60;;;15.20;99.90;;;;;;5017759;28;20257;-83
2022/05/29 11:06:02;;;;;;;8.07;1.90;;;15.50;99.90;;;;;;5018269;28;20185;-83
2022/05/29 11:08:40;;;;;;;8.40;1.50;;;15.40;99.90;;;;;;5017561;28;20179;-83
2022/05/29 11:11:30;;;;;;;5.63;1.50;;;15.80;99.90;;;;;;5017117;28;20202;-82
2022/05/29 11:14:15;;;;;;;8.20;1.80;;;15.80;99.90;;;;;;5017913;28;20743;-82
2022/05/29 11:17:11;;;;;;;3.43;1.40;;;15.90;99.90;;;;;;5018630;28;20670;-82
2022/05/29 11:19:45;;;;;;;6.23;1.50;;;15.90;99.90;;;;;;5018648;28;20218;-82
2022/05/29 11:22:25;;;;;;;6.53;1.90;;;15.90;99.90;;;;;;5017004;28;20689;-83
2022/05/29 11:25:06;;;;;;;5.73;1.43;;;15.70;99.90;;;;;;5017883;28;20174;-83
2022/05/29 11:27:51;;;;;;;5.17;1.60;;;15.50;99.90;;;;;;5018209;28;20244;-82
2022/05/29 11:30:37;;;;;;;6.73;1.63;;;15.20;99.90;;;;;;5017652;28;20201;-81
2022/05/29 11:33:24;;;;;;;10.50;1.73;;;14.70;99.90;;;;;;5018270;28;20185;-83
2022/05/29 11:36:08;;;;;;;8.57;1.70;;;14.20;99.90;;;;;;5016675;28;20201;-79
2022/05/29 11:39:00;;;;;;;5.90;1.77;;;13.70;99.90;;;;;;5017435;28;20179;-80
2022/05/29 11:41:36;;;;;;;6.53;1.80;;;13.40;99.90;;;;;;5015553;28;20681;-83
2022/05/29 11:44:28;;;;;;;6.67;1.80;;;13.20;99.90;;;;;;5016480;28;20181;-82
2022/05/29 11:53:09;;;;;;;5.53;1.57;;;14.30;99.90;;;;;;5018838;28;20181;-80
2022/05/29 11:55:40;;;;;;;9.47;1.87;;;14.50;99.90;;;;;;5016673;28;20268;-82
2022/05/29 11:58:11;;;;;;;8.30;2.40;;;14.50;99.90;;;;;;5016798;28;20177;-82
2022/05/29 12:00:58;;;;;;;8.97;1.63;;;14.70;99.90;;;;;;5015757;28;20305;-82
2022/05/29 12:03:56;;;;;;;2.93;1.37;;;14.80;99.90;;;;;;5015838;28;20608;-82
2022/05/29 12:06:38;;;;;;;7.43;1.30;;;14.70;99.90;;;;;;5015760;28;20175;-82
2022/05/29 12:09:18;;;;;;;5.67;1.60;;;14.80;99.90;;;;;;5016318;28;20178;-83
2022/05/29 12:12:07;;;;;;;4.40;1.37;;;14.50;99.90;;;;;;5015145;28;20199;-83
2022/05/29 12:14:35;;;;;;;3.57;1.20;;;14.50;99.90;;;;;;5016087;28;20654;-81
2022/05/29 12:17:12;;;;;;;4.37;1.10;;;14.70;99.90;;;;;;5016771;28;20175;-82
2022/05/29 12:19:47;;;;;;;3.13;1.17;;;14.90;99.90;;;;;;5016332;28;20217;-82
2022/05/29 12:22:19;;;;;;;3.17;1.10;;;14.90;99.90;;;;;;5015998;28;20205;-83
2022/05/29 12:24:48;;;;;;;3.93;0.90;;;14.60;99.90;;;;;;5015079;28;20185;-83
2022/05/29 12:27:22;;;;;;;2.60;1.10;;;14.90;99.90;;;;;;5016583;28;20184;-82
2022/05/29 12:30:25;;;;;;;4.07;1.33;;;15.30;99.90;;;;;;5016186;28;20237;-83
2022/05/29 12:32:51;;;;;;;3.90;1.33;;;15.20;99.90;;;;;;5016841;28;20184;-83
2022/05/29 12:35:35;;;;;;;3.27;1.23;;;15.40;99.90;;;;;;5016486;28;20623;-84
2022/05/29 12:38:14;;;;;;;4.07;1.10;;;15.10;99.90;;;;;;5016730;28;20177;-83
2022/05/29 12:41:12;;;;;;;3.43;1.27;;;15.60;99.90;;;;;;5017956;28;20221;-83
2022/05/29 12:44:09;;;;;;;5.43;1.20;;;15.70;99.90;;;;;;5009050;28;20273;-84
2022/05/29 12:47:16;;;;;;;6.17;1.13;;;15.40;99.90;;;;;;5017009;28;20182;-83
2022/05/29 12:50:30;;;;;;;5.53;1.13;;;15.30;99.90;;;;;;5004716;28;20193;-82
2022/05/29 12:53:02;;;;;;;3.33;1.30;;;15.10;99.90;;;;;;4998942;28;20191;-82
2022/05/29 12:56:00;;;;;;;7.87;1.30;;;15.10;99.90;;;;;;5017425;28;20233;-84
2022/05/29 12:58:35;;;;;;;8.50;1.20;;;15.10;99.90;;;;;;4996865;28;20285;-84
2022/05/29 13:01:13;;;;;;;4.50;1.27;;;15.10;99.90;;;;;;5016182;28;20539;-84
2022/05/29 13:03:39;;;;;;;2.33;1.00;;;15.40;99.90;;;;;;5031601;28;20225;-83
2022/05/29 13:06:27;;;;;;;6.23;1.17;;;15.40;99.90;;;;;;5014330;28;20179;-84
2022/05/29 13:09:08;;;;;;;4.63;1.30;;;15.20;99.90;;;;;;5016197;28;20233;-83
2022/05/29 13:11:40;;;;;;;6.13;1.20;;;15.00;99.90;;;;;;5015788;28;20284;-84
2022/05/29 13:14:08;;;;;;;4.93;1.20;;;14.90;99.90;;;;;;5016564;28;20186;-83
2022/05/29 13:16:40;;;;;;;3.23;1.03;;;14.90;99.90;;;;;;5016984;28;20182;-84
2022/05/29 13:19:19;;;;;;;1.73;0.90;;;14.90;99.90;;;;;;5015510;28;20309;-84
2022/05/29 13:21:56;;;;;;;8.17;1.37;;;15.00;99.90;;;;;;5016008;28;20198;-84
2022/05/29 13:24:24;;;;;;;2.73;1.00;;;14.90;99.90;;;;;;5015906;28;20177;-83
2022/05/29 13:27:13;;;;;;;1.63;0.70;;;15.10;99.90;;;;;;5015988;28;20198;-83
2022/05/29 13:29:50;;;;;;;2.23;0.93;;;15.10;99.90;;;;;;5009795;28;20221;-84
2022/05/29 13:32:16;;;;;;;2.80;1.00;;;15.40;99.90;;;;;;5019481;28;20247;-82
2022/05/29 13:34:49;;;;;;;1.50;0.70;;;15.70;99.90;;;;;;5016390;28;20183;-84
2022/05/29 13:37:26;;;;;;;2.63;0.93;;;15.70;99.90;;;;;;5018463;28;20201;-84
2022/05/29 13:40:00;;;;;;;2.47;0.73;;;15.60;99.90;;;;;;5015948;28;20256;-84
2022/05/29 13:42:28;;;;;;;1.83;0.90;;;15.50;99.90;;;;;;5016537;28;20190;-84
2022/05/29 13:44:54;;;;;;;4.50;1.07;;;15.70;99.90;;;;;;5016467;28;20178;-82
2022/05/29 13:47:19;;;;;;;3.60;1.17;;;15.40;99.90;;;;;;5016770;28;20179;-85
2022/05/29 13:49:51;;;;;;;5.10;1.10;;;15.50;99.90;;;;;;5015888;28;20190;-83
2022/05/29 13:52:26;;;;;;;3.60;1.17;;;15.20;99.90;;;;;;5016536;28;20202;-85
2022/05/29 13:55:16;;;;;;;2.70;1.10;;;15.10;99.90;;;;;;5016105;28;20185;-85